Aviation Digital Data Service (ADDS)

Output produced by METARs form (0301 UTC 18 August 2017)
found at http://www.aviationweather.gov/adds/metars/
 
LHBP 180230Z 30004KT CAVOK 17/16 Q1018 NOSIG
TAF LHBP 172315Z 1800/1824 VRB03KT CAVOK 
     BECMG 1808/1810 17005KT 
     BECMG 1816/1818 10003KT
       
LHDC 172215Z 05004KT CAVOK 22/17 Q1018 NOSIG
TAF LHDC 172015Z 1721/1806 VRB03KT CAVOK
       
LHKE 180245Z 00000KT CAVOK 16/13 Q1017 NOSIG RMK BLU
TAF LHKE 180215Z 1803/1812 VRB03KT CAVOK
       
LHPA 180215Z 00000KT CAVOK 16/14 Q1018 NOSIG RMK BLU
TAF LHPA 172315Z 1800/1824 VRB04KT CAVOK 
     BECMG 1808/1811 19006KT 
     BECMG 1821/1824 15008KT
       
LHPR 180215Z AUTO 32002KT CAVOK 16/14 Q1018 RMK BLU
LHSN 180245Z 00000KT CAVOK 18/16 Q1017 NOSIG RMK BLU
TAF LHSN 180215Z 1803/1812 VRB03KT CAVOK
       
LHUD 180145Z 00000KT CAVOK 17/13 Q1018
LHDC 172215Z 05004KT CAVOK 22/17 Q1018 NOSIG
TAF LHDC 172015Z 1721/1806 VRB03KT CAVOK
       
LHBP 180230Z 30004KT CAVOK 17/16 Q1018 NOSIG
TAF LHBP 172315Z 1800/1824 VRB03KT CAVOK 
     BECMG 1808/1810 17005KT 
     BECMG 1816/1818 10003KT
       
LHKE 180245Z 00000KT CAVOK 16/13 Q1017 NOSIG RMK BLU
TAF LHKE 180215Z 1803/1812 VRB03KT CAVOK
       
LHPA 180215Z 00000KT CAVOK 16/14 Q1018 NOSIG RMK BLU
TAF LHPA 172315Z 1800/1824 VRB04KT CAVOK 
     BECMG 1808/1811 19006KT 
     BECMG 1821/1824 15008KT
       
LHSN 180245Z 00000KT CAVOK 18/16 Q1017 NOSIG RMK BLU
TAF LHSN 180215Z 1803/1812 VRB03KT CAVOK